Terminal Aerodrome Forecast
Issued by NWS

Home | Current Version | Previous Version | Text Only | Print | Product List | Glossary On
Versions: 1 2 3 4 5 6 7 8 9 10 11 12 13 14 15 16 17 18 19 20 21 22 23 24 25 26 27 28 29 30 31 32 33 34 35 36 37 38 39 40 41 42 43 44 45 46 47
000
FTUS43 KABR 201735
TAFPIR
TAF
KPIR 201735Z 2018/2118 11010KT P6SM BKN017
     FM210200 12011G17KT P6SM OVC017
     FM210900 12017G24KT P6SM -SN BKN016
     FM211300 13015G23KT P6SM BKN014=

USA.gov is the U.S. government's official web portal to all federal, state and local government web resources and services.